KASH/ASH METAR and TAF weather

Enter ICAO airport designator
Station Type Date Time Source
KASH METAR 2019/10/18 05:56 UTC NOAA

KASH 180556Z AUTO 27008KT 10SM BKN045 09/04 A2946 RMK AO2 SLP980 6//// T00890039 10100 20083 51033 PNO $


Station Type Date Time Source
KASH Decoded METAR 2019/10/18 05:56 UTC NOAA

Nashua, Boire Field Airport, NH, United States (KASH) 42-46-54N 071-30-53W
Oct 18, 2019 - 01:56 AM EDT / 2019.10.18 0556 UTC
Wind: from the W (270 degrees) at 9 MPH (8 KT):0
Visibility: 10 mile(s):0
Sky conditions: mostly cloudy
Temperature: 48.0 F (8.9 C)
Dew Point: 39.0 F (3.9 C)
Relative Humidity: 70%
Pressure (altimeter): 29.46 in. Hg (997 hPa)
Pressure tendency: 0.10 inches (3.3 hPa) higher than three hours ago
ob: KASH 180556Z AUTO 27008KT 10SM BKN045 09/04 A2946 RMK AO2 SLP980 6//// T00890039 10100 20083 51033 PNO
cycle: 6

Station Type Date Time Source
KASH TAF UTC NOAA

Error!

Example: see airport list